sensor_id;sensor_type;location;lat;lon;timestamp;P1;durP1;ratioP1;P2;durP2;ratioP2
27580;SDS011;63557;52.302;7.964;2023-07-31T00:04:58;13.88;;;12.35;;
27580;SDS011;63557;52.302;7.964;2023-07-31T00:09:58;14.67;;;12.97;;
27580;SDS011;63557;52.302;7.964;2023-07-31T00:14:59;14.80;;;11.07;;
27580;SDS011;63557;52.302;7.964;2023-07-31T00:19:59;12.67;;;11.33;;
27580;SDS011;63557;52.302;7.964;2023-07-31T00:25:00;16.93;;;11.83;;
27580;SDS011;63557;52.302;7.964;2023-07-31T00:30:00;12.47;;;11.10;;
27580;SDS011;63557;52.302;7.964;2023-07-31T00:35:00;12.80;;;10.90;;
27580;SDS011;63557;52.302;7.964;2023-07-31T00:40:04;12.00;;;10.20;;
27580;SDS011;63557;52.302;7.964;2023-07-31T00:45:05;12.05;;;10.88;;
27580;SDS011;63557;52.302;7.964;2023-07-31T00:50:05;11.73;;;10.52;;
27580;SDS011;63557;52.302;7.964;2023-07-31T00:55:07;12.23;;;11.00;;
27580;SDS011;63557;52.302;7.964;2023-07-31T01:00:07;12.45;;;10.23;;
27580;SDS011;63557;52.302;7.964;2023-07-31T01:05:08;12.93;;;11.52;;
27580;SDS011;63557;52.302;7.964;2023-07-31T01:15:15;12.05;;;10.73;;
27580;SDS011;63557;52.302;7.964;2023-07-31T01:20:18;10.73;;;9.68;;
27580;SDS011;63557;52.302;7.964;2023-07-31T01:25:32;11.05;;;9.90;;
27580;SDS011;63557;52.302;7.964;2023-07-31T01:30:37;10.02;;;8.93;;
27580;SDS011;63557;52.302;7.964;2023-07-31T01:35:42;9.95;;;8.30;;
27580;SDS011;63557;52.302;7.964;2023-07-31T01:40:43;9.05;;;8.00;;
27580;SDS011;63557;52.302;7.964;2023-07-31T01:45:43;8.43;;;7.63;;
27580;SDS011;63557;52.302;7.964;2023-07-31T01:50:44;8.43;;;6.03;;
27580;SDS011;63557;52.302;7.964;2023-07-31T01:55:44;6.40;;;5.10;;
27580;SDS011;63557;52.302;7.964;2023-07-31T02:00:45;6.33;;;4.60;;
27580;SDS011;63557;52.302;7.964;2023-07-31T02:05:46;5.60;;;4.75;;
27580;SDS011;63557;52.302;7.964;2023-07-31T02:10:47;7.38;;;4.63;;
27580;SDS011;63557;52.302;7.964;2023-07-31T02:15:47;5.80;;;3.93;;
27580;SDS011;63557;52.302;7.964;2023-07-31T02:20:51;3.33;;;2.97;;
27580;SDS011;63557;52.302;7.964;2023-07-31T02:25:52;5.90;;;2.70;;
27580;SDS011;63557;52.302;7.964;2023-07-31T02:30:52;3.87;;;3.10;;
27580;SDS011;63557;52.302;7.964;2023-07-31T02:35:52;5.73;;;2.30;;
27580;SDS011;63557;52.302;7.964;2023-07-31T02:40:53;3.17;;;2.20;;
27580;SDS011;63557;52.302;7.964;2023-07-31T02:45:53;2.13;;;1.70;;
27580;SDS011;63557;52.302;7.964;2023-07-31T02:50:53;2.20;;;1.70;;
27580;SDS011;63557;52.302;7.964;2023-07-31T02:55:54;3.60;;;1.40;;
27580;SDS011;63557;52.302;7.964;2023-07-31T03:00:54;1.30;;;1.20;;
27580;SDS011;63557;52.302;7.964;2023-07-31T03:05:54;2.17;;;1.20;;
27580;SDS011;63557;52.302;7.964;2023-07-31T03:10:56;1.00;;;0.90;;
27580;SDS011;63557;52.302;7.964;2023-07-31T03:15:56;1.60;;;1.00;;
27580;SDS011;63557;52.302;7.964;2023-07-31T03:20:57;0.98;;;0.93;;
27580;SDS011;63557;52.302;7.964;2023-07-31T03:25:58;1.03;;;0.63;;
27580;SDS011;63557;52.302;7.964;2023-07-31T03:31:02;0.90;;;0.77;;
27580;SDS011;63557;52.302;7.964;2023-07-31T03:36:04;2.05;;;1.30;;
27580;SDS011;63557;52.302;7.964;2023-07-31T03:41:04;2.42;;;1.52;;
27580;SDS011;63557;52.302;7.964;2023-07-31T03:46:06;5.72;;;2.50;;
27580;SDS011;63557;52.302;7.964;2023-07-31T03:51:06;15.93;;;7.23;;
27580;SDS011;63557;52.302;7.964;2023-07-31T03:56:07;18.53;;;9.30;;
27580;SDS011;63557;52.302;7.964;2023-07-31T04:01:07;26.20;;;12.87;;
27580;SDS011;63557;52.302;7.964;2023-07-31T04:06:07;35.63;;;15.07;;
27580;SDS011;63557;52.302;7.964;2023-07-31T04:11:08;40.05;;;16.40;;
27580;SDS011;63557;52.302;7.964;2023-07-31T04:16:08;42.07;;;17.80;;
27580;SDS011;63557;52.302;7.964;2023-07-31T04:21:09;40.60;;;18.10;;
27580;SDS011;63557;52.302;7.964;2023-07-31T04:26:10;40.25;;;17.40;;
27580;SDS011;63557;52.302;7.964;2023-07-31T04:31:10;40.43;;;16.67;;
27580;SDS011;63557;52.302;7.964;2023-07-31T04:36:10;41.97;;;15.13;;
27580;SDS011;63557;52.302;7.964;2023-07-31T04:41:11;30.83;;;14.37;;
27580;SDS011;63557;52.302;7.964;2023-07-31T04:46:11;34.50;;;14.37;;
27580;SDS011;63557;52.302;7.964;2023-07-31T04:51:12;28.30;;;13.23;;
27580;SDS011;63557;52.302;7.964;2023-07-31T04:56:12;25.43;;;12.67;;
27580;SDS011;63557;52.302;7.964;2023-07-31T05:01:12;32.10;;;13.65;;
27580;SDS011;63557;52.302;7.964;2023-07-31T05:06:13;32.30;;;14.40;;
27580;SDS011;63557;52.302;7.964;2023-07-31T05:11:15;33.22;;;13.70;;
27580;SDS011;63557;52.302;7.964;2023-07-31T05:16:15;38.07;;;14.80;;
27580;SDS011;63557;52.302;7.964;2023-07-31T05:21:16;32.90;;;15.60;;
27580;SDS011;63557;52.302;7.964;2023-07-31T05:26:16;43.63;;;16.60;;
27580;SDS011;63557;52.302;7.964;2023-07-31T05:31:16;49.58;;;17.88;;
27580;SDS011;63557;52.302;7.964;2023-07-31T05:36:17;39.77;;;15.87;;
27580;SDS011;63557;52.302;7.964;2023-07-31T05:41:18;42.85;;;15.95;;
27580;SDS011;63557;52.302;7.964;2023-07-31T05:46:18;42.83;;;15.98;;
27580;SDS011;63557;52.302;7.964;2023-07-31T05:51:18;40.13;;;13.90;;
27580;SDS011;63557;52.302;7.964;2023-07-31T05:56:19;30.90;;;13.30;;
27580;SDS011;63557;52.302;7.964;2023-07-31T06:01:19;35.47;;;14.33;;
27580;SDS011;63557;52.302;7.964;2023-07-31T06:06:21;26.88;;;12.35;;
27580;SDS011;63557;52.302;7.964;2023-07-31T06:11:21;34.07;;;13.87;;
27580;SDS011;63557;52.302;7.964;2023-07-31T06:16:22;28.70;;;11.45;;
27580;SDS011;63557;52.302;7.964;2023-07-31T06:21:23;32.65;;;13.68;;
27580;SDS011;63557;52.302;7.964;2023-07-31T06:26:23;32.60;;;12.15;;
27580;SDS011;63557;52.302;7.964;2023-07-31T06:31:23;29.57;;;13.00;;
27580;SDS011;63557;52.302;7.964;2023-07-31T06:36:24;24.58;;;12.02;;
27580;SDS011;63557;52.302;7.964;2023-07-31T06:41:24;30.83;;;12.65;;
27580;SDS011;63557;52.302;7.964;2023-07-31T06:46:27;31.73;;;12.38;;
27580;SDS011;63557;52.302;7.964;2023-07-31T06:51:27;31.07;;;12.10;;
27580;SDS011;63557;52.302;7.964;2023-07-31T06:56:28;32.47;;;12.93;;
27580;SDS011;63557;52.302;7.964;2023-07-31T07:01:28;34.30;;;12.20;;
27580;SDS011;63557;52.302;7.964;2023-07-31T07:06:28;28.02;;;11.48;;
27580;SDS011;63557;52.302;7.964;2023-07-31T07:11:29;32.83;;;11.70;;
27580;SDS011;63557;52.302;7.964;2023-07-31T07:16:29;27.17;;;12.03;;
27580;SDS011;63557;52.302;7.964;2023-07-31T07:21:30;30.90;;;12.18;;
27580;SDS011;63557;52.302;7.964;2023-07-31T07:26:30;26.40;;;11.10;;
27580;SDS011;63557;52.302;7.964;2023-07-31T07:31:30;27.17;;;10.50;;
27580;SDS011;63557;52.302;7.964;2023-07-31T07:36:31;23.30;;;9.23;;
27580;SDS011;63557;52.302;7.964;2023-07-31T07:41:32;31.40;;;10.13;;
27580;SDS011;63557;52.302;7.964;2023-07-31T07:46:33;25.83;;;10.90;;
27580;SDS011;63557;52.302;7.964;2023-07-31T07:51:33;31.58;;;11.52;;
27580;SDS011;63557;52.302;7.964;2023-07-31T07:56:33;25.67;;;10.77;;
27580;SDS011;63557;52.302;7.964;2023-07-31T08:01:36;21.00;;;9.43;;
27580;SDS011;63557;52.302;7.964;2023-07-31T08:06:36;27.83;;;10.10;;
27580;SDS011;63557;52.302;7.964;2023-07-31T08:11:36;18.03;;;8.17;;
27580;SDS011;63557;52.302;7.964;2023-07-31T08:16:37;19.63;;;8.70;;
27580;SDS011;63557;52.302;7.964;2023-07-31T08:21:37;14.63;;;6.90;;
27580;SDS011;63557;52.302;7.964;2023-07-31T08:26:38;14.03;;;6.93;;
27580;SDS011;63557;52.302;7.964;2023-07-31T08:31:38;12.63;;;6.55;;
27580;SDS011;63557;52.302;7.964;2023-07-31T08:36:38;11.00;;;5.90;;
27580;SDS011;63557;52.302;7.964;2023-07-31T08:41:39;11.43;;;6.13;;
27580;SDS011;63557;52.302;7.964;2023-07-31T08:46:39;7.85;;;4.32;;
27580;SDS011;63557;52.302;7.964;2023-07-31T08:51:40;6.60;;;4.10;;
27580;SDS011;63557;52.302;7.964;2023-07-31T08:56:41;5.18;;;4.03;;
27580;SDS011;63557;52.302;7.964;2023-07-31T09:01:43;6.80;;;4.75;;
27580;SDS011;63557;52.302;7.964;2023-07-31T09:06:43;6.95;;;5.60;;
27580;SDS011;63557;52.302;7.964;2023-07-31T09:11:44;7.45;;;5.35;;
27580;SDS011;63557;52.302;7.964;2023-07-31T09:16:51;5.40;;;4.80;;
27580;SDS011;63557;52.302;7.964;2023-07-31T09:21:53;7.20;;;4.88;;
27580;SDS011;63557;52.302;7.964;2023-07-31T09:26:54;7.10;;;4.70;;
27580;SDS011;63557;52.302;7.964;2023-07-31T09:31:55;5.13;;;4.63;;
27580;SDS011;63557;52.302;7.964;2023-07-31T09:36:57;4.65;;;4.20;;
27580;SDS011;63557;52.302;7.964;2023-07-31T09:41:58;4.80;;;4.40;;
27580;SDS011;63557;52.302;7.964;2023-07-31T09:46:58;6.53;;;4.20;;
27580;SDS011;63557;52.302;7.964;2023-07-31T09:51:59;5.03;;;4.57;;
27580;SDS011;63557;52.302;7.964;2023-07-31T09:56:59;4.10;;;3.80;;
27580;SDS011;63557;52.302;7.964;2023-07-31T10:02:00;4.90;;;4.40;;
27580;SDS011;63557;52.302;7.964;2023-07-31T10:07:00;8.23;;;4.13;;
27580;SDS011;63557;52.302;7.964;2023-07-31T10:12:02;5.30;;;4.43;;
27580;SDS011;63557;52.302;7.964;2023-07-31T10:17:05;4.40;;;4.00;;
27580;SDS011;63557;52.302;7.964;2023-07-31T10:22:07;4.00;;;3.60;;
27580;SDS011;63557;52.302;7.964;2023-07-31T10:27:08;3.72;;;3.42;;
27580;SDS011;63557;52.302;7.964;2023-07-31T10:32:09;3.45;;;3.15;;
27580;SDS011;63557;52.302;7.964;2023-07-31T10:42:27;5.75;;;3.70;;
27580;SDS011;63557;52.302;7.964;2023-07-31T10:47:27;4.68;;;4.28;;
27580;SDS011;63557;52.302;7.964;2023-07-31T10:52:28;5.10;;;4.53;;
27580;SDS011;63557;52.302;7.964;2023-07-31T10:57:35;6.72;;;4.07;;
27580;SDS011;63557;52.302;7.964;2023-07-31T11:02:35;4.78;;;4.22;;
27580;SDS011;63557;52.302;7.964;2023-07-31T11:07:48;7.53;;;4.53;;
27580;SDS011;63557;52.302;7.964;2023-07-31T11:12:48;4.65;;;4.25;;
27580;SDS011;63557;52.302;7.964;2023-07-31T11:17:49;7.50;;;4.30;;
27580;SDS011;63557;52.302;7.964;2023-07-31T11:22:49;5.40;;;4.37;;
27580;SDS011;63557;52.302;7.964;2023-07-31T11:27:50;5.05;;;4.65;;
27580;SDS011;63557;52.302;7.964;2023-07-31T11:32:54;4.82;;;4.35;;
27580;SDS011;63557;52.302;7.964;2023-07-31T11:37:55;5.00;;;4.03;;
27580;SDS011;63557;52.302;7.964;2023-07-31T11:42:56;5.43;;;3.80;;
27580;SDS011;63557;52.302;7.964;2023-07-31T11:47:56;4.65;;;4.18;;
27580;SDS011;63557;52.302;7.964;2023-07-31T11:52:58;9.32;;;4.22;;
27580;SDS011;63557;52.302;7.964;2023-07-31T11:57:59;4.32;;;3.92;;
27580;SDS011;63557;52.302;7.964;2023-07-31T12:03:00;4.50;;;4.10;;
27580;SDS011;63557;52.302;7.964;2023-07-31T12:08:00;7.30;;;4.57;;
27580;SDS011;63557;52.302;7.964;2023-07-31T12:13:09;4.85;;;4.40;;
27580;SDS011;63557;52.302;7.964;2023-07-31T12:18:11;5.03;;;4.38;;
27580;SDS011;63557;52.302;7.964;2023-07-31T12:23:13;6.63;;;4.30;;
27580;SDS011;63557;52.302;7.964;2023-07-31T12:28:14;4.75;;;3.85;;
27580;SDS011;63557;52.302;7.964;2023-07-31T12:33:14;5.30;;;3.93;;
27580;SDS011;63557;52.302;7.964;2023-07-31T12:38:14;4.88;;;4.03;;
27580;SDS011;63557;52.302;7.964;2023-07-31T12:43:15;4.63;;;4.10;;
27580;SDS011;63557;52.302;7.964;2023-07-31T12:48:15;4.70;;;4.10;;
27580;SDS011;63557;52.302;7.964;2023-07-31T12:53:16;5.83;;;4.60;;
27580;SDS011;63557;52.302;7.964;2023-07-31T12:58:16;7.13;;;5.30;;
27580;SDS011;63557;52.302;7.964;2023-07-31T13:03:16;10.30;;;6.10;;
27580;SDS011;63557;52.302;7.964;2023-07-31T13:08:17;11.90;;;6.30;;
27580;SDS011;63557;52.302;7.964;2023-07-31T13:13:17;7.22;;;6.53;;
27580;SDS011;63557;52.302;7.964;2023-07-31T13:18:18;8.90;;;6.57;;
27580;SDS011;63557;52.302;7.964;2023-07-31T13:23:18;9.33;;;6.27;;
27580;SDS011;63557;52.302;7.964;2023-07-31T13:28:18;6.77;;;5.93;;
27580;SDS011;63557;52.302;7.964;2023-07-31T13:33:19;8.97;;;6.23;;
27580;SDS011;63557;52.302;7.964;2023-07-31T13:38:19;7.97;;;5.93;;
27580;SDS011;63557;52.302;7.964;2023-07-31T13:43:19;6.83;;;5.67;;
27580;SDS011;63557;52.302;7.964;2023-07-31T13:48:20;7.00;;;5.37;;
27580;SDS011;63557;52.302;7.964;2023-07-31T13:53:20;7.30;;;5.23;;
27580;SDS011;63557;52.302;7.964;2023-07-31T13:58:20;7.07;;;5.53;;
27580;SDS011;63557;52.302;7.964;2023-07-31T14:03:21;5.63;;;5.03;;
27580;SDS011;63557;52.302;7.964;2023-07-31T14:08:21;9.80;;;5.77;;
27580;SDS011;63557;52.302;7.964;2023-07-31T14:13:22;7.65;;;5.05;;
27580;SDS011;63557;52.302;7.964;2023-07-31T14:18:22;8.40;;;5.88;;
27580;SDS011;63557;52.302;7.964;2023-07-31T14:23:22;8.20;;;5.83;;
27580;SDS011;63557;52.302;7.964;2023-07-31T14:28:23;7.03;;;5.73;;
27580;SDS011;63557;52.302;7.964;2023-07-31T14:33:23;7.07;;;5.00;;
27580;SDS011;63557;52.302;7.964;2023-07-31T14:38:23;7.07;;;5.37;;
27580;SDS011;63557;52.302;7.964;2023-07-31T14:43:24;7.40;;;5.20;;
27580;SDS011;63557;52.302;7.964;2023-07-31T14:48:24;6.70;;;5.00;;
27580;SDS011;63557;52.302;7.964;2023-07-31T14:53:25;10.87;;;5.87;;
27580;SDS011;63557;52.302;7.964;2023-07-31T14:58:25;8.10;;;4.80;;
27580;SDS011;63557;52.302;7.964;2023-07-31T15:03:25;5.80;;;4.40;;
27580;SDS011;63557;52.302;7.964;2023-07-31T15:08:26;5.00;;;4.30;;
27580;SDS011;63557;52.302;7.964;2023-07-31T15:13:26;8.43;;;4.43;;
27580;SDS011;63557;52.302;7.964;2023-07-31T15:18:27;7.20;;;3.93;;
27580;SDS011;63557;52.302;7.964;2023-07-31T15:23:27;7.73;;;4.23;;
27580;SDS011;63557;52.302;7.964;2023-07-31T15:28:27;8.33;;;4.40;;
27580;SDS011;63557;52.302;7.964;2023-07-31T15:33:28;5.50;;;4.13;;
27580;SDS011;63557;52.302;7.964;2023-07-31T15:38:28;7.83;;;4.10;;
27580;SDS011;63557;52.302;7.964;2023-07-31T15:43:28;4.63;;;3.43;;
27580;SDS011;63557;52.302;7.964;2023-07-31T15:48:29;3.95;;;3.55;;
27580;SDS011;63557;52.302;7.964;2023-07-31T15:53:30;8.70;;;4.20;;
27580;SDS011;63557;52.302;7.964;2023-07-31T15:58:30;5.55;;;4.72;;
27580;SDS011;63557;52.302;7.964;2023-07-31T16:03:31;7.17;;;5.77;;
27580;SDS011;63557;52.302;7.964;2023-07-31T16:08:31;11.43;;;7.27;;
27580;SDS011;63557;52.302;7.964;2023-07-31T16:13:31;9.47;;;7.87;;
27580;SDS011;63557;52.302;7.964;2023-07-31T16:18:32;11.37;;;9.70;;
27580;SDS011;63557;52.302;7.964;2023-07-31T16:23:32;13.37;;;11.60;;
27580;SDS011;63557;52.302;7.964;2023-07-31T16:28:32;18.47;;;14.27;;
27580;SDS011;63557;52.302;7.964;2023-07-31T16:33:33;18.63;;;15.10;;
27580;SDS011;63557;52.302;7.964;2023-07-31T16:38:33;21.60;;;15.85;;
27580;SDS011;63557;52.302;7.964;2023-07-31T16:43:33;18.70;;;16.83;;
27580;SDS011;63557;52.302;7.964;2023-07-31T16:48:34;21.00;;;18.73;;
27580;SDS011;63557;52.302;7.964;2023-07-31T16:53:36;25.17;;;19.92;;
27580;SDS011;63557;52.302;7.964;2023-07-31T16:58:36;19.05;;;16.23;;
27580;SDS011;63557;52.302;7.964;2023-07-31T17:03:36;14.67;;;13.07;;
27580;SDS011;63557;52.302;7.964;2023-07-31T17:08:37;15.33;;;13.83;;
27580;SDS011;63557;52.302;7.964;2023-07-31T17:13:37;17.43;;;14.73;;
27580;SDS011;63557;52.302;7.964;2023-07-31T17:18:37;13.60;;;12.30;;
27580;SDS011;63557;52.302;7.964;2023-07-31T17:23:38;13.00;;;10.60;;
27580;SDS011;63557;52.302;7.964;2023-07-31T17:28:41;12.13;;;10.63;;
27580;SDS011;63557;52.302;7.964;2023-07-31T17:33:41;11.70;;;10.43;;
27580;SDS011;63557;52.302;7.964;2023-07-31T17:38:42;13.95;;;10.57;;
27580;SDS011;63557;52.302;7.964;2023-07-31T17:43:42;16.47;;;12.30;;
27580;SDS011;63557;52.302;7.964;2023-07-31T17:48:43;16.23;;;12.05;;
27580;SDS011;63557;52.302;7.964;2023-07-31T17:53:44;16.33;;;12.30;;
27580;SDS011;63557;52.302;7.964;2023-07-31T17:58:44;14.63;;;11.27;;
27580;SDS011;63557;52.302;7.964;2023-07-31T18:03:45;13.02;;;10.65;;
27580;SDS011;63557;52.302;7.964;2023-07-31T18:08:45;12.63;;;9.10;;
27580;SDS011;63557;52.302;7.964;2023-07-31T18:13:46;11.97;;;9.63;;
27580;SDS011;63557;52.302;7.964;2023-07-31T18:18:48;13.77;;;9.70;;
27580;SDS011;63557;52.302;7.964;2023-07-31T18:23:48;14.53;;;10.50;;
27580;SDS011;63557;52.302;7.964;2023-07-31T18:28:48;13.00;;;9.13;;
27580;SDS011;63557;52.302;7.964;2023-07-31T18:33:49;13.20;;;9.40;;
27580;SDS011;63557;52.302;7.964;2023-07-31T18:38:49;12.70;;;8.30;;
27580;SDS011;63557;52.302;7.964;2023-07-31T18:43:50;12.80;;;8.47;;
27580;SDS011;63557;52.302;7.964;2023-07-31T18:48:51;10.25;;;8.43;;
27580;SDS011;63557;52.302;7.964;2023-07-31T18:53:52;13.73;;;8.98;;
27580;SDS011;63557;52.302;7.964;2023-07-31T18:58:52;12.30;;;8.53;;
27580;SDS011;63557;52.302;7.964;2023-07-31T19:03:53;10.55;;;8.35;;
27580;SDS011;63557;52.302;7.964;2023-07-31T19:08:54;9.77;;;7.77;;
27580;SDS011;63557;52.302;7.964;2023-07-31T19:13:54;9.57;;;7.70;;
27580;SDS011;63557;52.302;7.964;2023-07-31T19:18:55;11.00;;;8.73;;
27580;SDS011;63557;52.302;7.964;2023-07-31T19:23:55;13.83;;;8.60;;
27580;SDS011;63557;52.302;7.964;2023-07-31T19:28:55;15.50;;;7.80;;
27580;SDS011;63557;52.302;7.964;2023-07-31T19:33:56;12.20;;;7.50;;
27580;SDS011;63557;52.302;7.964;2023-07-31T19:38:56;13.97;;;7.90;;
27580;SDS011;63557;52.302;7.964;2023-07-31T19:43:57;11.80;;;7.20;;
27580;SDS011;63557;52.302;7.964;2023-07-31T19:48:57;8.00;;;6.43;;
27580;SDS011;63557;52.302;7.964;2023-07-31T19:53:59;8.57;;;6.38;;
27580;SDS011;63557;52.302;7.964;2023-07-31T19:59:00;7.28;;;6.22;;
27580;SDS011;63557;52.302;7.964;2023-07-31T20:04:00;7.97;;;6.23;;
27580;SDS011;63557;52.302;7.964;2023-07-31T20:09:00;10.13;;;6.27;;
27580;SDS011;63557;52.302;7.964;2023-07-31T20:14:04;5.97;;;5.03;;
27580;SDS011;63557;52.302;7.964;2023-07-31T20:19:06;7.47;;;5.32;;
27580;SDS011;63557;52.302;7.964;2023-07-31T20:24:07;6.15;;;5.28;;
27580;SDS011;63557;52.302;7.964;2023-07-31T20:29:07;7.18;;;5.28;;
27580;SDS011;63557;52.302;7.964;2023-07-31T20:34:08;8.73;;;5.30;;
27580;SDS011;63557;52.302;7.964;2023-07-31T20:39:11;5.65;;;5.10;;
27580;SDS011;63557;52.302;7.964;2023-07-31T20:44:11;7.40;;;5.40;;
27580;SDS011;63557;52.302;7.964;2023-07-31T20:49:12;4.40;;;3.73;;
27580;SDS011;63557;52.302;7.964;2023-07-31T20:54:12;5.77;;;4.37;;
27580;SDS011;63557;52.302;7.964;2023-07-31T20:59:12;4.40;;;4.00;;
27580;SDS011;63557;52.302;7.964;2023-07-31T21:04:13;5.70;;;4.10;;
27580;SDS011;63557;52.302;7.964;2023-07-31T21:09:14;3.35;;;3.05;;
27580;SDS011;63557;52.302;7.964;2023-07-31T21:14:14;3.23;;;2.93;;
27580;SDS011;63557;52.302;7.964;2023-07-31T21:19:15;3.43;;;3.13;;
27580;SDS011;63557;52.302;7.964;2023-07-31T21:24:15;4.87;;;3.60;;
27580;SDS011;63557;52.302;7.964;2023-07-31T21:29:15;4.23;;;3.20;;
27580;SDS011;63557;52.302;7.964;2023-07-31T21:34:16;3.00;;;2.80;;
27580;SDS011;63557;52.302;7.964;2023-07-31T21:39:16;3.27;;;2.97;;
27580;SDS011;63557;52.302;7.964;2023-07-31T21:44:16;6.37;;;3.50;;
27580;SDS011;63557;52.302;7.964;2023-07-31T21:49:17;4.10;;;3.70;;
27580;SDS011;63557;52.302;7.964;2023-07-31T21:54:17;4.80;;;3.73;;
27580;SDS011;63557;52.302;7.964;2023-07-31T21:59:17;3.23;;;2.93;;
27580;SDS011;63557;52.302;7.964;2023-07-31T22:04:18;2.70;;;2.50;;
27580;SDS011;63557;52.302;7.964;2023-07-31T22:09:18;3.97;;;2.63;;
27580;SDS011;63557;52.302;7.964;2023-07-31T22:14:18;4.90;;;2.63;;
27580;SDS011;63557;52.302;7.964;2023-07-31T22:19:19;2.83;;;2.58;;
27580;SDS011;63557;52.302;7.964;2023-07-31T22:24:20;4.53;;;2.40;;
27580;SDS011;63557;52.302;7.964;2023-07-31T22:29:21;2.87;;;2.17;;
27580;SDS011;63557;52.302;7.964;2023-07-31T22:34:21;6.05;;;2.38;;
27580;SDS011;63557;52.302;7.964;2023-07-31T22:39:21;2.40;;;2.20;;
27580;SDS011;63557;52.302;7.964;2023-07-31T22:44:22;3.67;;;2.50;;
27580;SDS011;63557;52.302;7.964;2023-07-31T22:49:22;3.00;;;2.80;;
27580;SDS011;63557;52.302;7.964;2023-07-31T22:54:22;3.90;;;3.30;;
27580;SDS011;63557;52.302;7.964;2023-07-31T22:59:23;3.60;;;3.10;;
27580;SDS011;63557;52.302;7.964;2023-07-31T23:04:23;5.17;;;3.53;;
27580;SDS011;63557;52.302;7.964;2023-07-31T23:09:24;6.65;;;3.35;;
27580;SDS011;63557;52.302;7.964;2023-07-31T23:14:24;3.67;;;3.37;;
27580;SDS011;63557;52.302;7.964;2023-07-31T23:19:24;3.53;;;3.03;;
27580;SDS011;63557;52.302;7.964;2023-07-31T23:24:25;5.30;;;4.30;;
27580;SDS011;63557;52.302;7.964;2023-07-31T23:29:25;8.07;;;3.60;;
27580;SDS011;63557;52.302;7.964;2023-07-31T23:34:26;6.43;;;3.47;;
27580;SDS011;63557;52.302;7.964;2023-07-31T23:39:26;4.93;;;4.10;;
27580;SDS011;63557;52.302;7.964;2023-07-31T23:44:26;8.10;;;4.63;;
27580;SDS011;63557;52.302;7.964;2023-07-31T23:49:27;5.78;;;4.55;;
27580;SDS011;63557;52.302;7.964;2023-07-31T23:54:27;5.57;;;4.83;;
27580;SDS011;63557;52.302;7.964;2023-07-31T23:59:28;5.80;;;5.13;;
